Time;durP1;ratioP1;P1;durP2;ratioP2;P2;SDS_P1;SDS_P2;PMS_P1;PMS_P2;Temp;Humidity;BMP_temperature;BMP_pressure;BME280_temperature;BME280_humidity;BME280_pressure;Samples;Min_cycle;Max_cycle;Signal;HPM_P1;HPM_P2
2022/07/21 00:01:00;;;;;;;9.87;9.47;;;;;;;18.76;100.00;66169.25;5093825;28;20721;-73
2022/07/21 00:03:26;;;;;;;9.57;9.03;;;;;;;18.77;100.00;66169.81;5093767;28;20197;-73
2022/07/21 00:05:53;;;;;;;10.47;9.83;;;;;;;18.77;100.00;66167.75;5094311;28;20189;-73
2022/07/21 00:08:19;;;;;;;9.17;8.83;;;;;;;18.79;100.00;66172.03;5093751;28;20178;-73
2022/07/21 00:10:46;;;;;;;10.40;9.87;;;;;;;18.82;100.00;66173.31;5093721;28;20217;-73
2022/07/21 00:13:13;;;;;;;9.47;9.17;;;;;;;18.81;100.00;66174.84;5075689;28;20217;-72
2022/07/21 00:15:39;;;;;;;8.20;8.03;;;;;;;18.83;100.00;66176.50;5093554;28;20206;-72
2022/07/21 00:18:06;;;;;;;9.70;9.13;;;;;;;18.85;100.00;66184.56;5093615;28;20225;-72
2022/07/21 00:20:33;;;;;;;9.87;9.37;;;;;;;18.87;100.00;66186.81;5093848;28;20570;-72
2022/07/21 00:22:59;;;;;;;10.90;10.10;;;;;;;18.81;100.00;66174.84;5092325;28;20217;-72
2022/07/21 00:25:26;;;;;;;9.87;9.37;;;;;;;18.83;100.00;66176.50;5075572;28;20206;-72
2022/07/21 00:27:59;;;;;;;9.77;9.23;;;;;;;18.84;100.00;66177.63;5093610;28;20201;-72
2022/07/21 00:30:26;;;;;;;9.10;8.57;;;;;;;18.90;100.00;66186.97;5075350;28;20198;-72
2022/07/21 00:32:53;;;;;;;9.40;8.80;;;;;;;18.89;100.00;66186.41;5093465;28;20218;-73
2022/07/21 00:35:19;;;;;;;9.07;8.67;;;;;;;18.87;100.00;66186.81;5093331;28;20256;-73
2022/07/21 00:37:46;;;;;;;9.33;9.07;;;;;;;18.84;100.00;66183.44;5093369;28;20200;-73
2022/07/21 00:40:13;;;;;;;9.73;9.33;;;;;;;18.84;100.00;66178.19;5093367;28;20224;-73
2022/07/21 00:42:40;;;;;;;9.30;8.80;;;;;;;18.83;100.00;66177.06;5093603;28;20181;-73
2022/07/21 00:45:07;;;;;;;9.33;9.03;;;;;;;18.82;100.00;66178.59;5093232;28;20248;-73
2022/07/21 00:47:34;;;;;;;10.50;10.00;;;;;;;18.83;100.00;66176.50;5093298;28;20193;-73
2022/07/21 00:50:05;;;;;;;10.13;9.63;;;;;;;18.85;100.00;66178.75;5093554;28;20218;-73
2022/07/21 00:52:32;;;;;;;10.17;9.67;;;;;;;18.84;100.00;66183.44;5093254;28;20205;-73
2022/07/21 00:54:58;;;;;;;11.03;10.33;;;;;;;;;;5093340;28;20259;-73
2022/07/21 00:57:25;;;;;;;10.43;9.70;;;;;;;18.85;100.00;66179.31;5093192;28;20701;-73
2022/07/21 00:59:51;;;;;;;10.63;9.80;;;;;;;18.82;100.00;66173.31;5093187;28;20668;-73
2022/07/21 01:02:18;;;;;;;10.70;10.20;;;;;;;18.80;100.00;66173.72;5075659;28;20182;-73
2022/07/21 01:04:45;;;;;;;10.33;9.73;;;;;;;18.81;100.00;66177.47;5093082;28;20618;-73
2022/07/21 01:07:13;;;;;;;10.53;9.73;;;;;;;18.84;100.00;66177.63;5093074;28;20209;-73
2022/07/21 01:09:39;;;;;;;10.07;9.67;;;;;;;18.84;100.00;66178.19;5093350;28;20664;-73
2022/07/21 01:12:06;;;;;;;11.07;10.10;;;;;;;18.85;100.00;66178.75;5093608;28;20214;-73
2022/07/21 01:14:33;;;;;;;11.90;11.20;;;;;;;18.83;100.00;66179.16;5093012;28;20635;-73
2022/07/21 01:17:02;;;;;;;13.30;12.17;;;;;;;18.82;100.00;66175.97;5092979;28;20198;-73
2022/07/21 01:19:29;;;;;;;12.40;11.50;;;;;;;18.82;100.00;66180.66;5092968;28;20239;-73
2022/07/21 01:21:55;;;;;;;13.03;12.20;;;;;;;;;;5093502;28;20540;-73
2022/07/21 01:24:21;;;;;;;13.40;11.83;;;;;;;;;;5074741;28;20214;-73
2022/07/21 01:26:50;;;;;;;13.53;12.40;;;;;;;18.78;100.00;66173.56;5092976;28;20189;-73
2022/07/21 01:29:17;;;;;;;12.17;11.30;;;;;;;18.69;100.00;66161.44;5093220;28;20174;-73
2022/07/21 01:31:46;;;;;;;12.57;11.50;;;;;;;18.74;100.00;66164.41;5093140;28;20208;-73
2022/07/21 01:34:13;;;;;;;11.30;10.60;;;;;;;18.68;100.00;66162.97;5092948;28;20210;-74
2022/07/21 01:36:40;;;;;;;11.27;10.80;;;;;;;18.60;100.00;66151.94;5092763;28;20205;-74
2022/07/21 01:41:52;;;;;;;10.93;10.10;;;;;;;18.52;100.00;66145.63;5093048;28;20224;-74
2022/07/21 01:44:19;;;;;;;11.47;10.50;;;;;;;18.36;100.00;66136.22;5092939;28;20213;-74
2022/07/21 01:46:48;;;;;;;9.87;9.33;;;;;;;18.22;100.00;66110.09;5074636;28;20248;-74
2022/07/21 01:49:17;;;;;;;9.73;9.07;;;;;;;18.16;100.00;66103.38;5092980;28;20251;-74
2022/07/21 01:51:43;;;;;;;9.37;8.63;;;;;;;18.18;100.00;66105.63;5093596;28;20228;-74
2022/07/21 01:54:11;;;;;;;9.50;9.07;;;;;;;18.18;100.00;66110.88;5096208;28;20259;-73
2022/07/21 01:56:39;;;;;;;11.53;9.33;;;;;;;18.20;100.00;66107.84;5096710;28;20210;-73
2022/07/21 01:59:06;;;;;;;9.50;9.10;;;;;;;18.22;100.00;66109.53;5096436;28;20670;-73
2022/07/21 02:01:33;;;;;;;9.23;8.77;;;;;;;18.22;100.00;66112.16;5096160;28;20190;-74
2022/07/21 02:04:04;;;;;;;8.67;8.37;;;;;;;18.24;100.00;66114.94;5096056;28;20292;-74
2022/07/21 02:06:30;;;;;;;8.73;8.43;;;;;;;;;;5096358;28;20200;-74
2022/07/21 02:08:57;;;;;;;8.57;8.13;;;;;;;18.23;100.00;66110.66;5096566;28;20182;-74
2022/07/21 02:11:24;;;;;;;7.83;7.63;;;;;;;18.10;100.00;66096.69;5095958;28;20193;-74
2022/07/21 02:13:50;;;;;;;10.30;9.80;;;;;;;18.04;100.00;66087.94;5095868;28;20210;-74
2022/07/21 02:16:17;;;;;;;9.53;8.77;;;;;;;17.89;100.00;66073.81;5095758;28;20633;-74
2022/07/21 02:18:43;;;;;;;7.83;7.53;;;;;;;17.84;100.00;66068.78;5078157;28;20608;-74
2022/07/21 02:21:10;;;;;;;7.23;6.83;;;;;;;17.85;100.00;66069.91;5096027;28;20182;-74
2022/07/21 02:23:36;;;;;;;6.80;6.50;;;;;;;17.86;100.00;66076.28;5095760;28;20205;-74
2022/07/21 02:26:03;;;;;;;6.93;6.67;;;;;;;17.85;100.00;66069.34;5077582;28;20186;-74
2022/07/21 02:28:30;;;;;;;8.27;7.97;;;;;;;17.88;100.00;66075.34;5095607;28;20197;-74
2022/07/21 02:30:56;;;;;;;9.70;9.30;;;;;;;17.94;100.00;66079.41;5095858;28;20194;-74
2022/07/21 02:33:23;;;;;;;10.77;10.17;;;;;;;17.97;100.00;66079.56;5095486;28;20268;-74
2022/07/21 02:35:49;;;;;;;10.50;9.87;;;;;;;17.96;100.00;66078.44;5077546;28;20615;-74
2022/07/21 02:38:16;;;;;;;9.03;8.63;;;;;;;;;;5095469;28;20262;-74
2022/07/21 02:40:43;;;;;;;11.37;10.57;;;;;;;17.92;100.00;66073.97;5095699;28;20231;-74
2022/07/21 02:43:09;;;;;;;12.03;11.20;;;;;;;17.86;100.00;66073.66;5095571;28;20190;-73
2022/07/21 02:45:41;;;;;;;12.03;11.13;;;;;;;17.82;100.00;66071.81;5095288;28;20224;-73
2022/07/21 02:48:09;;;;;;;10.77;10.23;;;;;;;17.80;100.00;66064.34;5095530;28;20174;-74
2022/07/21 02:50:38;;;;;;;11.97;11.07;;;;;;;17.70;100.00;66053.16;5077281;28;20186;-74
2022/07/21 02:53:06;;;;;;;13.17;11.97;;;;;;;;;;5095649;28;20250;-74
2022/07/21 02:55:33;;;;;;;11.17;10.47;;;;;;;17.65;100.00;66049.66;5094990;28;20186;-74
2022/07/21 02:58:20;;;;;;;10.10;9.50;;;;;;;17.55;100.00;66041.69;5095050;28;20186;-74
2022/07/21 03:00:51;;;;;;;10.57;9.97;;;;;;;17.57;100.00;66041.84;5095302;28;20685;-74
2022/07/21 03:03:19;;;;;;;10.90;10.10;;;;;;;17.65;100.00;66049.66;5094745;28;20276;-73
2022/07/21 03:05:46;;;;;;;9.63;9.17;;;;;;;17.63;100.00;66047.41;5076713;28;20197;-74
2022/07/21 03:08:13;;;;;;;11.20;10.50;;;;;;;17.58;100.00;66047.66;5095684;28;20228;-74
2022/07/21 03:10:40;;;;;;;10.40;9.80;;;;;;;17.62;100.00;66044.22;5094842;28;20186;-74
2022/07/21 03:13:07;;;;;;;12.27;11.23;;;;;;;17.57;100.00;66041.84;5094967;28;20672;-74
2022/07/21 03:15:34;;;;;;;11.83;10.97;;;;;;;17.58;100.00;66045.03;5076701;28;20193;-74
2022/07/21 03:18:01;;;;;;;10.70;10.20;;;;;;;17.61;100.00;66048.38;5094661;28;20190;-74
2022/07/21 03:20:30;;;;;;;9.97;9.60;;;;;;;17.54;100.00;66032.69;5094630;28;20223;-74
2022/07/21 03:22:57;;;;;;;9.90;9.37;;;;;;;;;;5094558;28;20239;-74
2022/07/21 03:25:24;;;;;;;9.73;9.33;;;;;;;17.51;100.00;66032.53;5094481;28;20205;-73
2022/07/21 03:27:51;;;;;;;9.03;8.63;;;;;;;17.55;100.00;66033.81;5094550;28;20190;-74
2022/07/21 03:30:18;;;;;;;10.83;10.23;;;;;;;17.50;100.00;66030.84;5094920;28;20189;-74
2022/07/21 03:32:45;;;;;;;12.10;11.33;;;;;;;17.48;100.00;66031.25;5094429;28;20231;-74
2022/07/21 03:35:12;;;;;;;12.57;11.67;;;;;;;17.42;100.00;66029.78;5094549;28;20252;-74
2022/07/21 03:37:42;;;;;;;11.70;10.90;;;;;;;17.49;100.00;66027.09;5094508;28;20235;-74
2022/07/21 03:40:12;;;;;;;11.30;10.57;;;;;;;17.47;100.00;66028.06;5094839;28;20174;-74
2022/07/21 03:42:39;;;;;;;10.63;9.90;;;;;;;;;;5094184;28;20620;-74
2022/07/21 03:45:06;;;;;;;10.07;9.57;;;;;;;;;;5094107;28;20201;-74
2022/07/21 03:47:33;;;;;;;10.67;10.17;;;;;;;17.46;100.00;66026.41;5094106;28;20185;-76
2022/07/21 03:49:59;;;;;;;11.83;10.93;;;;;;;17.46;100.00;66026.94;5094086;28;20181;-75
2022/07/21 03:52:26;;;;;;;12.70;11.60;;;;;;;17.45;100.00;66025.84;5094566;28;20235;-75
2022/07/21 03:55:07;;;;;;;12.73;11.37;;;;;;;17.45;100.00;66025.84;5093914;28;20275;-74
2022/07/21 03:57:43;;;;;;;10.70;10.13;;;;;;;17.53;100.00;66040.00;5094160;28;20721;-74
2022/07/21 04:00:12;;;;;;;10.27;9.70;;;;;;;17.49;100.00;66034.97;5094133;28;20660;-74
2022/07/21 04:02:42;;;;;;;11.17;9.80;;;;;;;17.49;100.00;66029.72;5075716;28;20206;-74
2022/07/21 04:05:10;;;;;;;10.93;9.90;;;;;;;;;;5093770;28;20254;-74
2022/07/21 04:07:39;;;;;;;10.57;9.77;;;;;;;17.53;100.00;66036.81;5093744;28;20190;-74
2022/07/21 04:10:07;;;;;;;9.67;9.27;;;;;;;17.53;100.00;66032.13;5093973;28;20721;-74
2022/07/21 04:12:34;;;;;;;11.00;10.30;;;;;;;17.57;100.00;66043.91;5093977;28;20232;-74
2022/07/21 04:15:00;;;;;;;11.43;10.73;;;;;;;17.62;100.00;66044.22;5075348;28;20198;-74
2022/07/21 04:17:27;;;;;;;11.27;10.47;;;;;;;17.60;100.00;66042.00;5093559;28;20241;-74
2022/07/21 04:19:53;;;;;;;10.13;9.33;;;;;;;;;;5093594;28;20651;-74
2022/07/21 04:22:23;;;;;;;9.77;8.73;;;;;;;17.61;100.00;66043.13;5093528;28;20193;-74
2022/07/21 04:24:50;;;;;;;9.50;9.10;;;;;;;17.61;100.00;66043.13;5093480;28;20231;-74
2022/07/21 04:27:16;;;;;;;10.70;10.00;;;;;;;17.61;100.00;66041.06;5075681;28;20247;-74
2022/07/21 04:29:43;;;;;;;11.50;10.60;;;;;;;17.66;100.00;66056.59;5093514;28;20228;-74
2022/07/21 04:32:09;;;;;;;10.80;9.67;;;;;;;17.66;100.00;66048.69;5093450;28;20310;-74
2022/07/21 04:34:36;;;;;;;12.83;10.00;;;;;;;17.70;100.00;66057.84;5093846;28;20210;-73
2022/07/21 04:37:02;;;;;;;12.53;11.50;;;;;;;17.69;100.00;66052.03;5093587;28;20252;-73
2022/07/21 04:39:29;;;;;;;12.43;11.20;;;;;;;17.65;100.00;66044.41;5093323;28;20652;-73
2022/07/21 04:41:55;;;;;;;11.10;10.60;;;;;;;17.64;100.00;66045.91;5093225;28;20242;-73
2022/07/21 04:44:22;;;;;;;11.87;11.10;;;;;;;;;;5093302;28;20581;-73
2022/07/21 04:46:48;;;;;;;12.90;11.83;;;;;;;17.60;100.00;66042.56;5093316;28;20186;-73
2022/07/21 04:49:15;;;;;;;21.83;12.20;;;;;;;17.63;100.00;66052.66;5093299;28;20255;-73
2022/07/21 04:51:42;;;;;;;13.07;11.70;;;;;;;17.63;100.00;66047.41;5093244;28;20238;-73
2022/07/21 04:54:08;;;;;;;13.13;11.93;;;;;;;17.65;100.00;66052.84;5093645;28;20565;-73
2022/07/21 04:56:35;;;;;;;14.13;12.87;;;;;;;17.75;100.00;66058.19;5093117;28;20745;-73
2022/07/21 04:59:02;;;;;;;12.67;11.70;;;;;;;17.79;100.00;66065.31;5093177;28;20656;-73
2022/07/21 05:01:29;;;;;;;15.37;13.07;;;;;;;17.84;100.00;66066.16;5093158;28;20235;-73
2022/07/21 05:03:55;;;;;;;14.20;12.90;;;;;;;17.85;100.00;66071.97;5093111;28;20198;-74
2022/07/21 05:06:22;;;;;;;15.13;13.37;;;;;;;17.81;100.00;66065.44;5093307;28;20194;-74
2022/07/21 05:08:52;;;;;;;14.67;13.47;;;;;;;17.84;100.00;66071.41;5093428;28;20189;-74
2022/07/21 05:11:20;;;;;;;13.60;12.40;;;;;;;17.89;100.00;66079.06;5093360;28;20272;-74
2022/07/21 05:13:46;;;;;;;14.90;13.40;;;;;;;;;;5092955;28;20692;-74
2022/07/21 05:16:13;;;;;;;13.73;12.50;;;;;;;17.96;100.00;66078.44;5092972;28;20182;-74
2022/07/21 05:18:40;;;;;;;24.83;12.40;;;;;;;18.00;100.00;66086.09;5092977;28;20189;-74
2022/07/21 05:21:06;;;;;;;13.33;12.40;;;;;;;18.05;100.00;66096.38;5093125;28;20258;-74
2022/07/21 05:23:33;;;;;;;14.93;13.77;;;;;;;18.14;100.00;66109.03;5092896;28;20741;-75
2022/07/21 05:25:59;;;;;;;14.77;13.47;;;;;;;18.15;100.00;66099.66;5092945;28;20247;-75
2022/07/21 05:28:28;;;;;;;13.50;12.60;;;;;;;18.08;100.00;66091.84;5096449;28;20502;-75
2022/07/21 05:30:54;;;;;;;15.03;13.63;;;;;;;18.05;100.00;66091.09;5096721;28;20653;-75
2022/07/21 05:33:21;;;;;;;15.57;14.13;;;;;;;18.19;100.00;66104.09;5096626;28;20181;-74
2022/07/21 05:35:47;;;;;;;14.87;13.60;;;;;;;18.14;100.00;66101.16;5097163;28;20239;-74
2022/07/21 05:38:14;;;;;;;13.53;12.43;;;;;;;18.12;100.00;66099.47;5096560;28;20251;-74
2022/07/21 05:40:40;;;;;;;14.00;12.80;;;;;;;18.11;100.00;66097.81;5097108;28;20190;-74
2022/07/21 05:43:08;;;;;;;14.07;13.17;;;;;;;18.14;100.00;66101.16;5096712;28;20197;-73
2022/07/21 05:45:35;;;;;;;14.50;13.23;;;;;;;18.08;100.00;66097.09;5096474;28;20182;-74
2022/07/21 05:48:01;;;;;;;14.10;13.00;;;;;;;18.11;100.00;66097.81;5078692;28;20194;-75
2022/07/21 05:50:27;;;;;;;15.97;14.37;;;;;;;18.11;100.00;66097.81;5096661;28;20235;-74
2022/07/21 05:52:54;;;;;;;13.97;12.93;;;;;;;18.09;100.00;66092.94;5096601;28;20575;-75
2022/07/21 05:55:20;;;;;;;14.30;13.00;;;;;;;18.08;100.00;66092.41;5096192;28;20247;-75
2022/07/21 05:57:47;;;;;;;19.23;12.87;;;;;;;;;;5096287;28;20214;-74
2022/07/21 06:00:15;;;;;;;15.60;14.17;;;;;;;18.01;100.00;66084.03;5096480;28;20189;-73
2022/07/21 06:02:44;;;;;;;15.23;14.07;;;;;;;18.06;100.00;66092.22;5096138;28;20178;-74
2022/07/21 06:05:10;;;;;;;15.20;12.87;;;;;;;18.10;100.00;66094.63;5078352;28;20206;-74
2022/07/21 06:07:38;;;;;;;14.00;12.70;;;;;;;18.07;100.00;66091.28;5096402;28;20178;-75
2022/07/21 06:10:06;;;;;;;15.17;14.10;;;;;;;18.15;100.00;66107.53;5096262;28;20190;-75
2022/07/21 06:12:39;;;;;;;15.87;12.73;;;;;;;;;;5096224;28;20562;-75
2022/07/21 06:15:07;;;;;;;14.17;12.90;;;;;;;;;;5095814;28;20210;-75
2022/07/21 06:17:40;;;;;;;14.00;12.73;;;;;;;18.15;100.00;66104.91;5095852;28;20616;-74
2022/07/21 06:20:08;;;;;;;13.33;12.20;;;;;;;18.14;100.00;66099.09;5095825;28;20668;-74
2022/07/21 06:22:36;;;;;;;12.80;11.80;;;;;;;18.19;100.00;66114.63;5096365;28;20178;-74
2022/07/21 06:25:04;;;;;;;19.00;11.83;;;;;;;18.17;100.00;66115.00;5096131;28;20699;-74
2022/07/21 06:27:31;;;;;;;14.60;13.47;;;;;;;18.17;100.00;66103.94;5095797;28;20597;-74
2022/07/21 06:29:58;;;;;;;13.80;12.23;;;;;;;18.13;100.00;66100.03;5095627;28;20190;-74
2022/07/21 06:32:26;;;;;;;12.97;11.80;;;;;;;18.15;100.00;66102.84;5095836;28;20218;-74
2022/07/21 06:34:53;;;;;;;13.90;12.50;;;;;;;;;;5095720;28;20205;-75
2022/07/21 06:37:21;;;;;;;12.53;11.43;;;;;;;18.09;100.00;66096.13;5094910;28;20263;-74
2022/07/21 06:39:47;;;;;;;12.27;11.07;;;;;;;18.12;100.00;66102.09;5095710;28;20186;-74
2022/07/21 06:42:14;;;;;;;12.80;12.03;;;;;;;;;;5095661;28;20239;-74
2022/07/21 06:44:40;;;;;;;13.43;12.43;;;;;;;18.04;100.00;66111.56;5077187;28;20615;-74
2022/07/21 06:47:07;;;;;;;14.33;13.23;;;;;;;18.14;100.00;66104.34;5095546;28;20725;-74
2022/07/21 06:49:34;;;;;;;13.90;12.53;;;;;;;18.17;100.00;66104.50;5095513;28;20235;-74
2022/07/21 06:52:01;;;;;;;13.47;12.67;;;;;;;18.29;100.00;66117.31;5095709;28;20185;-74
2022/07/21 06:54:27;;;;;;;12.30;11.27;;;;;;;18.25;100.00;66112.88;5095289;28;20259;-74
2022/07/21 06:56:54;;;;;;;11.57;10.97;;;;;;;18.40;100.00;66127.53;5095067;28;20206;-74
2022/07/21 06:59:20;;;;;;;11.57;10.80;;;;;;;18.38;100.00;66130.00;5095344;28;20186;-75
2022/07/21 07:01:46;;;;;;;10.90;10.27;;;;;;;18.42;100.00;66131.84;5095266;28;20517;-75
2022/07/21 07:04:13;;;;;;;12.53;11.33;;;;;;;18.52;100.00;66139.81;5095058;28;20213;-74
2022/07/21 07:06:40;;;;;;;11.30;10.40;;;;;;;18.57;100.00;66148.56;5095425;28;20190;-74
2022/07/21 07:09:06;;;;;;;11.70;10.80;;;;;;;;;;5094893;28;20713;-74
2022/07/21 07:11:35;;;;;;;10.90;10.10;;;;;;;18.70;100.00;66162.56;5094806;28;20189;-75
2022/07/21 07:14:02;;;;;;;10.83;9.80;;;;;;;18.67;100.00;66159.78;5094683;28;20259;-74
2022/07/21 07:16:43;;;;;;;12.80;10.80;;;;;;;18.72;100.00;66162.19;5095195;28;20605;-74
2022/07/21 07:19:10;;;;;;;10.17;9.73;;;;;;;18.73;100.00;66165.91;5094950;28;20239;-74
2022/07/21 07:21:36;;;;;;;11.07;10.57;;;;;;;18.62;100.00;66153.59;5095216;28;20228;-74
2022/07/21 07:24:04;;;;;;;12.60;10.07;;;;;;;18.69;100.00;66166.69;5094487;28;20235;-74
2022/07/21 07:26:31;;;;;;;10.27;9.80;;;;;;;18.76;100.00;66169.25;5094573;28;20182;-74
2022/07/21 07:28:57;;;;;;;11.57;10.60;;;;;;;18.78;100.00;66171.47;5095027;28;20166;-74
2022/07/21 07:31:24;;;;;;;10.80;10.00;;;;;;;18.88;100.00;66180.03;5094671;28;20517;-74
2022/07/21 07:33:50;;;;;;;11.10;10.07;;;;;;;18.87;100.00;66181.53;5094298;28;20749;-74
2022/07/21 07:36:17;;;;;;;10.53;9.90;;;;;;;;;;5094320;28;20194;-74
2022/07/21 07:38:44;;;;;;;10.13;9.63;;;;;;;19.02;100.00;66187.22;5109293;27;20267;-74
2022/07/21 07:41:10;;;;;;;9.07;8.57;;;;;;;19.11;100.00;66204.59;5113718;28;20670;-74
2022/07/21 07:43:37;;;;;;;9.07;8.30;;;;;;;19.09;100.00;66202.91;5122175;27;20225;-73
2022/07/21 07:46:04;;;;;;;10.97;10.47;;;;;;;19.14;100.00;66207.94;5125518;27;20599;-74
2022/07/21 07:48:31;;;;;;;10.47;9.67;;;;;;;19.13;100.00;66207.38;5121066;27;20629;-74
2022/07/21 07:50:58;;;;;;;9.53;9.13;;;;;;;19.12;100.00;66206.25;5130544;27;20555;-74
2022/07/21 07:53:24;;;;;;;9.30;9.10;;;;;;;19.06;100.00;66202.19;5122333;27;20193;-74
2022/07/21 07:55:51;;;;;;;9.67;9.33;;;;;;;19.12;100.00;66211.53;5128391;27;20192;-73
2022/07/21 07:58:17;;;;;;;11.00;10.30;;;;;;;19.10;100.00;66206.66;5116970;27;20209;-74
2022/07/21 08:00:43;;;;;;;10.60;10.03;;;;;;;19.11;100.00;66210.41;5130248;27;20233;-74
2022/07/21 08:03:21;;;;;;;10.13;9.40;;;;;;;19.15;100.00;66211.69;5125079;27;20200;-73
2022/07/21 08:05:48;;;;;;;9.50;8.97;;;;;;;19.12;100.00;66208.34;5114422;27;20213;-73
2022/07/21 08:08:15;;;;;;;8.77;8.33;;;;;;;19.21;100.00;66218.38;5119582;27;20235;-74
2022/07/21 08:10:43;;;;;;;8.50;8.10;;;;;;;19.25;100.00;66228.13;5119937;27;20197;-74
2022/07/21 08:13:12;;;;;;;8.70;8.27;;;;;;;19.23;100.00;66218.00;5127976;27;20230;-74
2022/07/21 08:15:39;;;;;;;8.60;8.07;;;;;;;;;;5111951;27;20249;-73
2022/07/21 08:18:06;;;;;;;8.33;7.80;;;;;;;;;;5115675;27;20220;-74
2022/07/21 08:20:34;;;;;;;7.87;7.57;;;;;;;19.38;100.00;66234.19;5113227;28;20716;-73
2022/07/21 08:23:00;;;;;;;10.17;8.30;;;;;;;19.47;100.00;66247.44;5113955;27;20207;-71
2022/07/21 08:25:27;;;;;;;8.80;8.20;;;;;;;19.44;100.00;66244.09;5127030;27;20623;-74
2022/07/21 08:27:53;;;;;;;8.03;7.77;;;;;;;19.56;100.00;66253.72;5126006;27;20188;-73
2022/07/21 08:30:20;;;;;;;7.83;7.63;;;;;;;19.62;100.00;66268.91;5115956;28;20590;-73
2022/07/21 08:32:54;;;;;;;7.80;7.37;;;;;;;19.68;100.00;66267.16;5094058;28;20181;-74
2022/07/21 08:35:21;;;;;;;7.17;6.80;;;;;;;;;;5105273;28;20213;-73
2022/07/21 08:37:59;;;;;;;7.77;7.43;;;;;;;19.72;100.00;66274.28;5113955;28;20235;-73
2022/07/21 08:40:28;;;;;;;7.77;7.47;;;;;;;;;;5113528;28;20200;-73
2022/07/21 08:42:54;;;;;;;7.63;7.27;;;;;;;;;;5113326;28;20234;-72
2022/07/21 08:45:22;;;;;;;8.20;7.83;;;;;;;19.68;100.00;66270.34;5113576;28;20725;-73
2022/07/21 08:47:52;;;;;;;7.83;7.33;;;;;;;;;;5095319;28;20189;-73
2022/07/21 08:50:21;;;;;;;7.53;7.20;;;;;;;;;;5113604;28;20648;-73
2022/07/21 08:52:48;;;;;;;7.43;7.23;;;;;;;19.70;100.00;66272.59;5112407;28;20592;-72
2022/07/21 08:55:14;;;;;;;9.43;8.33;;;;;;;;;;5113289;28;20253;-73
2022/07/21 08:57:41;;;;;;;8.83;8.00;;;;;;;19.76;100.00;66276.09;5109168;28;20582;-72
2022/07/21 09:00:13;;;;;;;8.40;7.80;;;;;;;19.74;100.00;66277.06;5112318;28;20238;-72
2022/07/21 09:02:39;;;;;;;11.43;8.30;;;;;;;19.85;100.00;66285.59;5117559;28;20211;-73
2022/07/21 09:05:08;;;;;;;8.27;7.37;;;;;;;;;;5116264;27;20287;-71
2022/07/21 09:07:48;;;;;;;8.10;7.50;;;;;;;19.89;100.00;66285.38;5127511;27;20241;-72
2022/07/21 09:10:15;;;;;;;7.73;7.50;;;;;;;19.90;100.00;66294.38;5112595;28;20198;-72
2022/07/21 09:12:53;;;;;;;7.43;7.03;;;;;;;20.03;100.00;66306.28;5113457;28;20246;-72
2022/07/21 09:15:21;;;;;;;6.57;6.37;;;;;;;20.08;100.00;66310.75;5110971;27;20267;-72
2022/07/21 09:18:11;;;;;;;6.83;6.57;;;;;;;20.21;100.00;66325.28;5102296;27;20197;-72
2022/07/21 09:20:45;;;;;;;7.23;6.70;;;;;;;;;;5103862;27;20277;-71
2022/07/21 09:23:14;;;;;;;7.47;7.27;;;;;;;20.36;100.00;66344.69;5125530;27;20185;-72
2022/07/21 09:25:44;;;;;;;7.67;7.20;;;;;;;20.28;100.00;66335.72;5097415;27;20190;-73
2022/07/21 09:28:17;;;;;;;7.73;7.37;;;;;;;20.35;100.00;66341.47;5096714;28;20186;-73
2022/07/21 09:31:06;;;;;;;6.07;5.87;;;;;;;20.34;100.00;66342.44;5096517;28;20193;-72
2022/07/21 09:33:33;;;;;;;6.70;6.60;;;;;;;;;;5096830;28;20702;-73
2022/07/21 09:36:10;;;;;;;7.67;7.13;;;;;;;20.39;100.00;66348.03;5096663;28;20250;-73
2022/07/21 09:38:43;;;;;;;7.67;7.27;;;;;;;20.40;100.00;66349.16;5096885;28;20243;-72
2022/07/21 09:41:12;;;;;;;7.83;6.43;;;;;;;20.34;99.53;66345.63;5096856;28;20215;-72
2022/07/21 09:43:41;;;;;;;7.67;7.20;;;;;;;20.48;99.50;66358.13;5096460;28;20247;-72
2022/07/21 09:46:09;;;;;;;7.00;6.67;;;;;;;;;;5096492;28;20235;-74
2022/07/21 09:48:38;;;;;;;7.60;7.30;;;;;;;20.56;99.59;66364.41;5096433;28;20181;-73
2022/07/21 09:51:23;;;;;;;7.23;6.93;;;;;;;;;;5097003;28;20190;-73
2022/07/21 09:53:51;;;;;;;8.47;8.13;;;;;;;;;;5096272;28;20628;-72
2022/07/21 09:56:18;;;;;;;7.90;7.47;;;;;;;20.54;100.00;66362.19;5096573;28;20239;-72
2022/07/21 09:58:51;;;;;;;7.77;7.37;;;;;;;20.59;100.00;66373.06;5096756;28;20601;-72
2022/07/21 10:01:18;;;;;;;8.43;8.13;;;;;;;20.59;100.00;66369.88;5096239;28;20184;-72
2022/07/21 10:03:47;;;;;;;7.10;6.90;;;;;;;20.59;99.83;66370.41;5096334;28;20237;-72
2022/07/21 10:06:16;;;;;;;9.57;8.67;;;;;;;20.63;99.07;66374.31;5096097;28;20597;-72
2022/07/21 10:08:44;;;;;;;8.63;8.33;;;;;;;20.70;100.00;66382.16;5096052;28;20216;-73
2022/07/21 10:11:11;;;;;;;8.90;8.40;;;;;;;20.72;99.94;66383.84;5096019;28;20231;-73
2022/07/21 10:13:44;;;;;;;8.87;8.03;;;;;;;20.76;100.00;66393.59;5095062;28;20198;-72
2022/07/21 10:16:11;;;;;;;7.97;7.60;;;;;;;;;;5096121;28;20228;-73
2022/07/21 10:19:07;;;;;;;8.20;7.70;;;;;;;20.82;99.81;66387.09;5096361;28;20237;-73
2022/07/21 10:21:37;;;;;;;11.40;7.83;;;;;;;20.98;98.28;66412.34;5095825;28;20181;-73
2022/07/21 10:24:04;;;;;;;8.10;7.87;;;;;;;20.99;98.01;66402.91;5095989;28;20236;-73
2022/07/21 10:26:31;;;;;;;9.30;8.17;;;;;;;21.04;99.72;66416.44;5095409;28;20190;-73
2022/07/21 10:28:58;;;;;;;9.50;8.83;;;;;;;;;;5096020;28;20174;-73
2022/07/21 10:31:27;;;;;;;8.83;8.13;;;;;;;21.16;98.74;66429.84;5095997;28;20182;-72
2022/07/21 10:34:02;;;;;;;8.73;8.20;;;;;;;21.16;97.97;66430.41;5111992;28;20217;-73
2022/07/21 10:36:29;;;;;;;8.70;8.30;;;;;;;;;;5132736;27;20593;-72
2022/07/21 10:39:10;;;;;;;9.07;8.50;;;;;;;21.12;95.99;66425.38;5112625;27;20749;-73
2022/07/21 10:41:36;;;;;;;9.80;9.20;;;;;;;;;;5126316;27;20602;-73
2022/07/21 10:44:30;;;;;;;14.33;9.73;;;;;;;20.70;98.94;66378.97;5136369;27;20212;-73
2022/07/21 10:47:03;;;;;;;10.60;9.03;;;;;;;20.59;99.45;66370.41;5127392;27;20197;-74
2022/07/21 10:49:45;;;;;;;11.23;8.67;;;;;;;20.48;100.00;66358.13;5130815;27;20751;-72
2022/07/21 10:52:55;;;;;;;12.33;9.83;;;;;;;20.32;100.00;66340.22;5111541;28;20542;-74
2022/07/21 10:55:26;;;;;;;11.70;10.57;;;;;;;;;;5114341;28;20205;-71
2022/07/21 10:58:15;;;;;;;11.47;9.80;;;;;;;19.67;100.00;66269.25;5125473;27;20193;-73
2022/07/21 11:00:46;;;;;;;12.73;11.20;;;;;;;19.41;100.00;66240.16;5114640;28;20185;-73
2022/07/21 11:03:15;;;;;;;11.73;11.00;;;;;;;19.37;100.00;66236.28;5117395;27;20243;-72
2022/07/21 11:06:05;;;;;;;10.77;10.20;;;;;;;19.42;100.00;66241.28;5115034;27;20224;-72
2022/07/21 11:08:36;;;;;;;12.40;11.23;;;;;;;19.28;100.00;66223.56;5113212;28;20188;-69
2022/07/21 11:11:10;;;;;;;12.60;11.70;;;;;;;;;;5100032;28;20193;-72
2022/07/21 11:14:05;;;;;;;12.30;11.50;;;;;;;19.20;100.00;66217.28;5126659;27;20277;-73
2022/07/21 11:16:38;;;;;;;13.03;11.80;;;;;;;19.14;100.00;66211.13;5136165;27;20230;-73
2022/07/21 11:19:05;;;;;;;12.50;11.43;;;;;;;19.04;100.00;66199.41;5131957;27;20216;-73
2022/07/21 11:21:31;;;;;;;15.10;12.73;;;;;;;19.05;100.00;66197.88;5115282;27;20258;-73
2022/07/21 11:23:57;;;;;;;14.20;12.70;;;;;;;;;;5118080;27;20250;-72
2022/07/21 11:26:25;;;;;;;14.53;13.40;;;;;;;19.03;100.00;66201.47;5113347;28;20222;-72
2022/07/21 11:29:06;;;;;;;15.67;12.97;;;;;;;19.01;100.00;66193.44;5114979;27;20224;-70
2022/07/21 11:31:45;;;;;;;14.83;12.07;;;;;;;19.05;100.00;66203.16;5114310;27;20185;-72
2022/07/21 11:34:12;;;;;;;13.17;12.20;;;;;;;19.07;100.00;66203.31;5117186;27;20208;-73
2022/07/21 11:36:39;;;;;;;13.30;12.27;;;;;;;;;;5122096;27;20201;-73
2022/07/21 11:39:11;;;;;;;11.93;10.97;;;;;;;19.05;100.00;66203.16;5114631;28;20204;-73
2022/07/21 11:41:40;;;;;;;12.57;11.47;;;;;;;18.98;100.00;66190.63;5113999;28;20242;-74
2022/07/21 11:44:09;;;;;;;11.13;10.17;;;;;;;18.91;100.00;66183.38;5096519;28;20209;-74
2022/07/21 11:46:53;;;;;;;10.50;9.83;;;;;;;18.88;100.00;66185.28;5113127;27;20241;-73
2022/07/21 11:49:20;;;;;;;10.43;9.93;;;;;;;18.82;100.00;66175.41;5105902;27;20245;-74